createdAt,value
2023-04-07T00:00:45.630Z,99984.67
2023-04-07T00:03:15.344Z,99988.27
2023-04-07T00:05:44.629Z,99987.98
2023-04-07T00:08:13.050Z,99990.90
2023-04-07T00:13:21.366Z,99989.48
2023-04-07T00:15:49.751Z,99986.06
2023-04-07T00:18:24.990Z,99986.21
2023-04-07T00:20:53.519Z,99987.04
2023-04-07T00:23:21.729Z,99989.52
2023-04-07T00:25:50.434Z,99985.91
2023-04-07T00:28:19.042Z,99985.23
2023-04-07T00:30:53.281Z,99980.31
2023-04-07T00:33:23.453Z,99978.83
2023-04-07T00:35:51.938Z,99976.77
2023-04-07T00:38:20.497Z,99973.82
2023-04-07T00:40:49.215Z,99977.93
2023-04-07T00:43:19.970Z,99974.44
2023-04-07T00:45:48.238Z,99978.27
2023-04-07T00:48:16.634Z,99978.38
2023-04-07T00:50:45.511Z,99979.61
2023-04-07T00:53:13.896Z,99981.09
2023-04-07T00:55:43.971Z,99978.31
2023-04-07T00:58:13.522Z,99977.30
2023-04-07T01:00:50.929Z,99975.63
2023-04-07T01:03:42.702Z,99980.43
2023-04-07T01:06:11.838Z,99977.59
2023-04-07T01:08:56.192Z,99982.13
2023-04-07T01:11:42.683Z,99980.39
2023-04-07T01:14:12.389Z,99978.13
2023-04-07T01:16:49.471Z,99978.69
2023-04-07T01:19:37.192Z,99979.08
2023-04-07T01:22:18.098Z,99976.34
2023-04-07T01:24:55.952Z,99978.67
2023-04-07T01:27:55.273Z,99976.23
2023-04-07T01:30:23.732Z,99974.63
2023-04-07T01:32:53.530Z,99976.09
2023-04-07T01:35:22.344Z,99982.81
2023-04-07T01:37:50.760Z,99983.06
2023-04-07T01:40:19.726Z,99985.50
2023-04-07T01:42:48.843Z,99983.95
2023-04-07T01:45:17.518Z,99984.27
2023-04-07T01:47:47.347Z,99984.66
2023-04-07T01:50:15.716Z,99987.05
2023-04-07T01:52:44.617Z,99990.90
2023-04-07T01:55:14.047Z,99991.98
2023-04-07T01:57:54.584Z,99993.23
2023-04-07T02:00:23.161Z,99990.76
2023-04-07T02:02:55.878Z,99987.73
2023-04-07T02:05:24.534Z,99987.27
2023-04-07T02:07:58.545Z,99985.20
2023-04-07T02:10:37.369Z,99987.56
2023-04-07T02:13:09.221Z,99987.42
2023-04-07T02:15:37.616Z,99987.62
2023-04-07T02:18:05.929Z,99989.45
2023-04-07T02:20:34.276Z,99987.42
2023-04-07T02:23:02.461Z,99982.77
2023-04-07T02:25:32.190Z,99981.19
2023-04-07T02:28:00.960Z,99980.95
2023-04-07T02:30:29.517Z,99985.04
2023-04-07T02:32:58.811Z,99984.71
2023-04-07T02:35:27.046Z,99985.23
2023-04-07T02:37:55.628Z,99981.46
2023-04-07T02:40:24.013Z,99982.23
2023-04-07T02:42:57.460Z,99979.28
2023-04-07T02:45:25.885Z,99979.77
2023-04-07T02:47:54.249Z,99977.13
2023-04-07T02:50:22.545Z,99975.42
2023-04-07T02:52:50.929Z,99976.33
2023-04-07T02:55:19.628Z,99978.41
2023-04-07T02:57:48.010Z,99974.83
2023-04-07T03:00:31.941Z,99976.04
2023-04-07T03:03:23.387Z,99977.38
2023-04-07T03:06:18.440Z,99978.55
2023-04-07T03:09:01.192Z,99979.58
2023-04-07T03:11:30.046Z,99980.61
2023-04-07T03:13:59.269Z,99983.68
2023-04-07T03:16:40.998Z,99979.45
2023-04-07T03:19:11.025Z,99979.16
2023-04-07T03:21:43.234Z,99979.20
2023-04-07T03:24:11.646Z,99981.23
2023-04-07T03:26:40.385Z,99983.86
2023-04-07T03:29:16.872Z,99981.98
2023-04-07T03:31:46.741Z,99986.07
2023-04-07T03:34:16.332Z,99986.23
2023-04-07T03:36:48.166Z,99992.16
2023-04-07T03:39:16.721Z,99987.73
2023-04-07T03:41:46.260Z,99989.95
2023-04-07T03:44:14.633Z,99993.59
2023-04-07T03:46:43.042Z,99994.99
2023-04-07T03:49:11.916Z,99994.94
2023-04-07T03:51:39.995Z,99998.33
2023-04-07T03:54:14.033Z,100000.19
2023-04-07T03:56:44.488Z,100004.21
2023-04-07T03:59:14.555Z,100006.64
2023-04-07T04:01:52.379Z,100004.67
2023-04-07T04:04:20.783Z,100003.96
2023-04-07T04:06:57.937Z,100003.58
2023-04-07T04:09:44.737Z,100004.05
2023-04-07T04:12:13.592Z,100004.45
2023-04-07T04:14:53.391Z,100008.83
2023-04-07T04:17:21.875Z,100010.23
2023-04-07T04:19:51.593Z,100015.35
2023-04-07T04:22:24.228Z,100018.21
2023-04-07T04:24:54.934Z,100019.40
2023-04-07T04:27:26.545Z,100017.64
2023-04-07T04:30:00.691Z,100018.55
2023-04-07T04:32:37.728Z,100020.23
2023-04-07T04:35:06.980Z,100019.79
2023-04-07T04:37:38.804Z,100020.81
2023-04-07T04:40:12.499Z,100019.64
2023-04-07T04:42:41.755Z,100019.64
2023-04-07T04:45:10.800Z,100018.61
2023-04-07T04:47:44.209Z,100020.00
2023-04-07T04:50:13.347Z,100016.75
2023-04-07T04:52:43.937Z,100014.33
2023-04-07T04:55:21.463Z,100016.29
2023-04-07T04:57:51.167Z,100013.13
2023-04-07T05:00:26.618Z,100011.39
2023-04-07T05:02:59.226Z,100011.01
2023-04-07T05:05:27.956Z,100012.08
2023-04-07T05:07:58.463Z,100015.41
2023-04-07T05:10:29.018Z,100016.98
2023-04-07T05:12:57.710Z,100016.06
2023-04-07T05:15:25.991Z,100020.35
2023-04-07T05:17:55.392Z,100024.94
2023-04-07T05:20:27.296Z,100027.36
2023-04-07T05:23:00.039Z,100031.41
2023-04-07T05:25:32.925Z,100028.27
2023-04-07T05:28:04.861Z,100033.77
2023-04-07T05:30:42.387Z,100031.19
2023-04-07T05:33:13.482Z,100033.95
2023-04-07T05:35:46.341Z,100034.84
2023-04-07T05:38:14.958Z,100039.24
2023-04-07T05:40:43.823Z,100039.22
2023-04-07T05:43:13.864Z,100038.23
2023-04-07T05:45:43.640Z,100036.65
2023-04-07T05:48:12.782Z,100038.73
2023-04-07T05:50:46.140Z,100036.24
2023-04-07T05:53:17.587Z,100034.82
2023-04-07T05:55:49.962Z,100036.99
2023-04-07T05:58:41.671Z,100036.86
2023-04-07T06:01:16.151Z,100040.66
2023-04-07T06:03:45.187Z,100040.75
2023-04-07T06:06:20.788Z,100043.96
2023-04-07T06:08:49.592Z,100044.05
2023-04-07T06:11:18.222Z,100049.40
2023-04-07T06:13:47.001Z,100047.29
2023-04-07T06:16:18.234Z,100049.77
2023-04-07T06:18:52.940Z,100049.12
2023-04-07T06:21:21.153Z,100052.45
2023-04-07T06:23:51.946Z,100055.19
2023-04-07T06:26:21.836Z,100058.41
2023-04-07T06:28:50.001Z,100062.18
2023-04-07T06:31:19.153Z,100064.52
2023-04-07T06:33:53.724Z,100065.15
2023-04-07T06:36:23.639Z,100067.58
2023-04-07T06:38:53.788Z,100062.38
2023-04-07T06:41:22.565Z,100063.32
2023-04-07T06:43:53.084Z,100068.08
2023-04-07T06:46:21.811Z,100066.06
2023-04-07T06:48:49.964Z,100063.63
2023-04-07T06:51:18.560Z,100062.95
2023-04-07T06:53:49.105Z,100065.67
2023-04-07T06:56:17.698Z,100064.23
2023-04-07T06:58:46.053Z,100064.59
2023-04-07T07:01:16.499Z,100065.74
2023-04-07T07:03:47.188Z,100065.09
2023-04-07T07:06:15.763Z,100068.31
2023-04-07T07:08:44.312Z,100065.16
2023-04-07T07:11:13.313Z,100064.82
2023-04-07T07:13:42.695Z,100070.05
2023-04-07T07:16:12.969Z,100073.80
2023-04-07T07:18:46.769Z,100067.70
2023-04-07T07:21:15.488Z,100066.56
2023-04-07T07:23:44.763Z,100064.63
2023-04-07T07:26:13.724Z,100070.77
2023-04-07T07:28:42.189Z,100069.17
2023-04-07T07:31:15.054Z,100066.14
2023-04-07T07:33:46.572Z,100069.48
2023-04-07T07:36:15.870Z,100067.39
2023-04-07T07:38:44.394Z,100070.80
2023-04-07T07:41:12.618Z,100072.48
2023-04-07T07:43:41.308Z,100070.80
2023-04-07T07:46:09.691Z,100074.38
2023-04-07T07:48:41.664Z,100075.17
2023-04-07T07:51:10.147Z,100076.10
2023-04-07T07:53:38.470Z,100073.91
2023-04-07T07:56:06.930Z,100074.20
2023-04-07T07:58:35.109Z,100074.77
2023-04-07T08:01:07.576Z,100072.75
2023-04-07T08:03:36.242Z,100075.41
2023-04-07T08:06:09.752Z,100074.08
2023-04-07T08:08:39.131Z,100075.19
2023-04-07T08:11:07.733Z,100079.71
2023-04-07T08:13:39.051Z,100079.94
2023-04-07T08:16:07.962Z,100087.42
2023-04-07T08:18:36.483Z,100081.33
2023-04-07T08:21:06.219Z,100077.86
2023-04-07T08:23:34.902Z,100070.38
2023-04-07T08:26:03.168Z,100073.35
2023-04-07T08:28:35.399Z,100075.83
2023-04-07T08:31:03.846Z,100076.38
2023-04-07T08:33:32.091Z,100075.52
2023-04-07T08:36:05.913Z,100074.18
2023-04-07T08:38:34.830Z,100074.17
2023-04-07T08:41:05.137Z,100074.66
2023-04-07T08:43:36.204Z,100077.98
2023-04-07T08:46:04.588Z,100078.45
2023-04-07T08:48:34.325Z,100076.30
2023-04-07T08:51:06.702Z,100079.05
2023-04-07T08:53:44.154Z,100074.92
2023-04-07T08:56:13.271Z,100072.57
2023-04-07T08:58:41.524Z,100069.85
2023-04-07T09:01:09.773Z,100072.73
2023-04-07T09:03:39.688Z,100072.66
2023-04-07T09:06:08.112Z,100066.90
2023-04-07T09:08:36.577Z,100060.77
2023-04-07T09:11:04.941Z,100063.25
2023-04-07T09:13:34.947Z,100062.14
2023-04-07T09:16:03.552Z,100063.25
2023-04-07T09:18:33.897Z,100068.94
2023-04-07T09:21:04.121Z,100068.73
2023-04-07T09:23:37.116Z,100070.71
2023-04-07T09:26:25.031Z,100071.00
2023-04-07T09:28:55.816Z,100073.00
2023-04-07T09:31:28.511Z,100073.48
2023-04-07T09:33:57.197Z,100072.42
2023-04-07T09:36:25.424Z,100071.40
2023-04-07T09:38:53.813Z,100068.91
2023-04-07T09:41:22.431Z,100068.08
2023-04-07T09:43:56.984Z,100064.81
2023-04-07T09:46:26.357Z,100071.38
2023-04-07T09:49:02.591Z,100073.08
2023-04-07T09:51:30.764Z,100064.05
2023-04-07T09:53:59.171Z,100065.00
2023-04-07T09:56:27.432Z,100073.13
2023-04-07T09:58:55.605Z,100077.60
2023-04-07T10:01:23.967Z,100077.40
2023-04-07T10:03:53.102Z,100067.27
2023-04-07T10:06:21.939Z,100068.33
2023-04-07T10:08:53.726Z,100071.92
2023-04-07T10:11:22.238Z,100071.97
2023-04-07T10:13:51.786Z,100074.11
2023-04-07T10:16:21.300Z,100076.30
2023-04-07T10:18:50.051Z,100077.31
2023-04-07T10:21:18.436Z,100078.16
2023-04-07T10:23:58.489Z,100072.24
2023-04-07T10:26:29.289Z,100073.42
2023-04-07T10:29:04.600Z,100071.45
2023-04-07T10:31:33.266Z,100070.98
2023-04-07T10:34:11.671Z,100074.63
2023-04-07T10:37:08.756Z,100069.19
2023-04-07T10:39:37.944Z,100063.55
2023-04-07T10:43:22.495Z,100060.80
2023-04-07T10:45:58.052Z,100059.44
2023-04-07T10:48:28.738Z,100058.05
2023-04-07T10:51:06.326Z,100055.39
2023-04-07T10:53:35.210Z,100060.34
2023-04-07T10:56:03.796Z,100060.42
2023-04-07T10:58:33.530Z,100058.43
2023-04-07T11:01:07.885Z,100060.48
2023-04-07T11:03:40.971Z,100064.22
2023-04-07T11:06:11.212Z,100059.91
2023-04-07T11:08:39.996Z,100053.16
2023-04-07T11:11:14.123Z,100051.73
2023-04-07T11:13:49.221Z,100047.98
2023-04-07T11:16:18.857Z,100051.48
2023-04-07T11:18:51.068Z,100047.33
2023-04-07T11:21:19.735Z,100042.57
2023-04-07T11:23:48.617Z,100040.48
2023-04-07T11:26:18.110Z,100037.83
2023-04-07T11:28:47.613Z,100035.30
2023-04-07T11:31:30.174Z,100036.41
2023-04-07T11:34:03.705Z,100035.86
2023-04-07T11:36:37.931Z,100034.14
2023-04-07T11:39:17.940Z,100026.57
2023-04-07T11:41:47.869Z,100027.02
2023-04-07T11:44:16.757Z,100022.48
2023-04-07T11:46:55.753Z,100025.20
2023-04-07T11:49:28.553Z,100023.64
2023-04-07T11:52:07.363Z,100019.59
2023-04-07T11:54:41.967Z,100015.70
2023-04-07T11:57:13.418Z,100016.31
2023-04-07T11:59:44.100Z,100015.93
2023-04-07T12:02:32.896Z,100019.38
2023-04-07T12:05:01.312Z,100021.16
2023-04-07T12:07:31.965Z,100022.41
2023-04-07T12:10:21.329Z,100018.42
2023-04-07T12:12:56.375Z,100016.83
2023-04-07T12:15:26.288Z,100016.67
2023-04-07T12:17:55.774Z,100019.16
2023-04-07T12:20:27.435Z,100015.33
2023-04-07T12:22:59.109Z,100011.12
2023-04-07T12:25:27.610Z,100007.00
2023-04-07T12:28:02.381Z,100004.33
2023-04-07T12:30:31.216Z,100001.54
2023-04-07T12:32:59.949Z,99998.59
2023-04-07T12:35:28.933Z,99998.98
2023-04-07T12:37:58.024Z,99997.06
2023-04-07T12:40:29.452Z,99995.69
2023-04-07T12:42:58.553Z,99994.35
2023-04-07T12:45:26.833Z,99991.09
2023-04-07T12:47:56.198Z,99993.38
2023-04-07T12:50:25.558Z,99989.58
2023-04-07T12:52:54.951Z,99992.55
2023-04-07T12:55:23.117Z,99990.98
2023-04-07T12:57:51.347Z,99990.36
2023-04-07T13:00:21.038Z,99989.75
2023-04-07T13:02:51.374Z,99987.33
2023-04-07T13:05:19.887Z,99985.13
2023-04-07T13:07:50.086Z,99989.30
2023-04-07T13:10:18.292Z,99993.20
2023-04-07T13:12:48.614Z,99993.84
2023-04-07T13:15:19.560Z,99995.23
2023-04-07T13:17:47.930Z,99994.63
2023-04-07T13:20:19.904Z,99993.64
2023-04-07T13:22:57.705Z,99991.05
2023-04-07T13:25:34.171Z,99993.01
2023-04-07T13:28:02.294Z,99991.87
2023-04-07T13:30:30.623Z,99991.00
2023-04-07T13:32:59.754Z,99990.21
2023-04-07T13:35:30.415Z,99988.94
2023-04-07T13:37:59.305Z,99988.83
2023-04-07T13:40:27.537Z,99988.72
2023-04-07T13:42:57.145Z,99993.86
2023-04-07T13:45:25.487Z,99994.06
2023-04-07T13:47:56.203Z,99991.28
2023-04-07T13:50:25.320Z,99988.60
2023-04-07T13:52:53.634Z,99984.67
2023-04-07T13:55:21.877Z,99989.05
2023-04-07T13:57:50.165Z,99988.00
2023-04-07T14:00:19.997Z,99990.06
2023-04-07T14:03:08.736Z,99986.89
2023-04-07T14:05:37.329Z,99987.39
2023-04-07T14:08:06.823Z,99988.14
2023-04-07T14:10:36.537Z,99985.20
2023-04-07T14:13:04.716Z,99983.79
2023-04-07T14:15:34.220Z,99983.20
2023-04-07T14:18:02.573Z,99984.98
2023-04-07T14:20:31.188Z,99987.80
2023-04-07T14:23:00.097Z,99986.38
2023-04-07T14:25:28.458Z,99988.05
2023-04-07T14:27:58.793Z,99987.14
2023-04-07T14:30:27.497Z,99984.40
2023-04-07T14:32:56.525Z,99981.91
2023-04-07T14:35:25.714Z,99985.71
2023-04-07T14:37:55.647Z,99988.11
2023-04-07T14:40:24.758Z,99982.80
2023-04-07T14:43:06.972Z,99980.84
2023-04-07T14:45:35.890Z,99981.20
2023-04-07T14:48:06.195Z,99979.02
2023-04-07T14:50:34.800Z,99979.34
2023-04-07T14:53:05.041Z,99983.25
2023-04-07T14:55:33.577Z,99982.91
2023-04-07T14:58:02.135Z,99981.23
2023-04-07T15:00:30.341Z,99981.61
2023-04-07T15:03:16.646Z,99985.10
2023-04-07T15:05:45.194Z,99989.27
2023-04-07T15:08:14.354Z,99987.34
2023-04-07T15:10:42.856Z,99990.60
2023-04-07T15:13:11.345Z,99986.50
2023-04-07T15:15:39.531Z,99987.46
2023-04-07T15:18:08.049Z,99989.27
2023-04-07T15:20:36.493Z,99991.11
2023-04-07T15:23:04.787Z,99992.84
2023-04-07T15:25:33.217Z,99991.48
2023-04-07T15:28:02.358Z,99992.59
2023-04-07T15:30:34.223Z,99992.02
2023-04-07T15:33:04.505Z,99991.74
2023-04-07T15:35:33.057Z,99990.67
2023-04-07T15:38:01.517Z,99994.17
2023-04-07T15:40:30.092Z,99991.61
2023-04-07T15:42:58.692Z,99996.13
2023-04-07T15:45:27.108Z,99997.53
2023-04-07T15:47:56.345Z,99994.57
2023-04-07T15:50:25.381Z,99997.42
2023-04-07T15:52:54.331Z,99996.04
2023-04-07T15:55:22.378Z,100002.25
2023-04-07T15:57:53.409Z,100003.02
2023-04-07T16:00:22.745Z,100003.25
2023-04-07T16:02:56.109Z,100000.96
2023-04-07T16:05:25.097Z,99999.33
2023-04-07T16:07:53.265Z,99999.52
2023-04-07T16:10:22.899Z,100002.27
2023-04-07T16:12:52.609Z,100001.56
2023-04-07T16:15:32.774Z,100002.73
2023-04-07T16:18:08.212Z,100002.04
2023-04-07T16:20:36.780Z,100005.78
2023-04-07T16:23:10.169Z,100006.77
2023-04-07T16:25:39.577Z,100008.02
2023-04-07T16:28:07.869Z,100010.98
2023-04-07T16:30:37.389Z,100014.71
2023-04-07T16:33:14.460Z,100013.23
2023-04-07T16:35:42.834Z,100016.11
2023-04-07T16:38:11.632Z,100017.39
2023-04-07T16:40:42.750Z,100020.34
2023-04-07T16:43:14.026Z,100021.89
2023-04-07T16:45:42.936Z,100024.44
2023-04-07T16:48:11.293Z,100032.41
2023-04-07T16:50:43.390Z,100034.95
2023-04-07T16:53:11.481Z,100039.25
2023-04-07T16:55:41.279Z,100041.60
2023-04-07T16:58:09.955Z,100044.67
2023-04-07T17:00:38.141Z,100045.73
2023-04-07T17:03:23.732Z,100048.46
2023-04-07T17:05:52.093Z,100052.23
2023-04-07T17:08:20.383Z,100052.05
2023-04-07T17:10:48.559Z,100057.15
2023-04-07T17:13:17.137Z,100055.77
2023-04-07T17:15:45.362Z,100059.61
2023-04-07T17:18:15.515Z,100060.05
2023-04-07T17:20:44.036Z,100063.59
2023-04-07T17:23:18.647Z,100063.71
2023-04-07T17:25:51.544Z,100070.83
2023-04-07T17:28:19.831Z,100068.10
2023-04-07T17:30:48.812Z,100070.25
2023-04-07T17:33:18.431Z,100071.61
2023-04-07T17:35:49.928Z,100073.52
2023-04-07T17:38:18.458Z,100075.33
2023-04-07T17:40:46.757Z,100081.22
2023-04-07T17:43:15.232Z,100083.37
2023-04-07T17:45:43.920Z,100083.61
2023-04-07T17:48:12.396Z,100085.96
2023-04-07T17:50:40.942Z,100085.24
2023-04-07T17:53:09.170Z,100092.73
2023-04-07T17:55:42.981Z,100090.73
2023-04-07T17:58:11.802Z,100093.05
2023-04-07T18:00:40.060Z,100097.22
2023-04-07T18:03:12.893Z,100096.79
2023-04-07T18:05:45.002Z,100100.81
2023-04-07T18:08:13.514Z,100105.06
2023-04-07T18:10:42.537Z,100109.27
2023-04-07T18:13:11.732Z,100108.45
2023-04-07T18:15:40.022Z,100112.30
2023-04-07T18:18:08.698Z,100121.46
2023-04-07T18:20:38.884Z,100133.34
2023-04-07T18:23:08.091Z,100140.10
2023-04-07T18:25:37.858Z,100144.61
2023-04-07T18:28:07.061Z,100144.31
2023-04-07T18:30:37.552Z,100147.61
2023-04-07T18:33:06.196Z,100145.59
2023-04-07T18:35:34.526Z,100148.90
2023-04-07T18:38:04.745Z,100146.31
2023-04-07T18:40:35.479Z,100142.51
2023-04-07T18:43:04.773Z,100150.33
2023-04-07T18:45:37.051Z,100149.80
2023-04-07T18:48:05.964Z,100150.42
2023-04-07T18:50:34.833Z,100148.34
2023-04-07T18:53:03.321Z,100145.50
2023-04-07T18:55:32.930Z,100145.05
2023-04-07T18:58:01.026Z,100144.27
2023-04-07T19:00:36.016Z,100142.60
2023-04-07T19:03:04.393Z,100137.39
2023-04-07T19:05:33.117Z,100135.36
2023-04-07T19:08:01.358Z,100132.24
2023-04-07T19:10:30.721Z,100133.28
2023-04-07T19:12:59.228Z,100132.45
2023-04-07T19:15:36.588Z,100130.48
2023-04-07T19:18:05.078Z,100131.14
2023-04-07T19:20:34.033Z,100134.52
2023-04-07T19:23:02.795Z,100130.79
2023-04-07T19:25:31.542Z,100127.25
2023-04-07T19:27:59.719Z,100128.55
2023-04-07T19:30:28.609Z,100125.98
2023-04-07T19:32:57.921Z,100122.61
2023-04-07T19:35:34.094Z,100121.27
2023-04-07T19:38:03.189Z,100116.16
2023-04-07T19:40:33.482Z,100116.52
2023-04-07T19:43:01.664Z,100114.27
2023-04-07T19:45:30.199Z,100114.94
2023-04-07T19:48:01.433Z,100121.67
2023-04-07T19:50:30.319Z,100118.38
2023-04-07T19:52:58.494Z,100119.36
